sensor_id;sensor_type;location;lat;lon;timestamp;temperature;humidity
81311;DHT22;70779;52.506;5.492;2023-07-22T00:01:10;19.50;58.30
81311;DHT22;70779;52.506;5.492;2023-07-22T00:03:36;19.50;58.30
81311;DHT22;70779;52.506;5.492;2023-07-22T00:06:11;19.50;58.40
81311;DHT22;70779;52.506;5.492;2023-07-22T00:08:38;19.40;58.50
81311;DHT22;70779;52.506;5.492;2023-07-22T00:11:05;19.40;58.50
81311;DHT22;70779;52.506;5.492;2023-07-22T00:13:32;19.40;58.60
81311;DHT22;70779;52.506;5.492;2023-07-22T00:15:58;19.40;58.60
81311;DHT22;70779;52.506;5.492;2023-07-22T00:18:30;19.40;58.60
81311;DHT22;70779;52.506;5.492;2023-07-22T00:20:56;19.40;58.60
81311;DHT22;70779;52.506;5.492;2023-07-22T00:23:23;19.40;58.60
81311;DHT22;70779;52.506;5.492;2023-07-22T00:25:49;19.40;58.60
81311;DHT22;70779;52.506;5.492;2023-07-22T00:28:15;19.50;58.60
81311;DHT22;70779;52.506;5.492;2023-07-22T00:30:42;19.50;58.70
81311;DHT22;70779;52.506;5.492;2023-07-22T00:33:08;19.40;58.70
81311;DHT22;70779;52.506;5.492;2023-07-22T00:35:35;19.40;58.70
81311;DHT22;70779;52.506;5.492;2023-07-22T00:38:01;19.40;58.70
81311;DHT22;70779;52.506;5.492;2023-07-22T00:40:28;19.40;58.80
81311;DHT22;70779;52.506;5.492;2023-07-22T00:42:57;19.40;58.70
81311;DHT22;70779;52.506;5.492;2023-07-22T00:45:25;19.40;58.90
81311;DHT22;70779;52.506;5.492;2023-07-22T00:47:51;19.40;59.00
81311;DHT22;70779;52.506;5.492;2023-07-22T00:50:18;19.30;59.00
81311;DHT22;70779;52.506;5.492;2023-07-22T00:52:44;19.30;59.10
81311;DHT22;70779;52.506;5.492;2023-07-22T00:55:10;19.30;59.20
81311;DHT22;70779;52.506;5.492;2023-07-22T00:57:36;19.20;59.30
81311;DHT22;70779;52.506;5.492;2023-07-22T01:00:05;19.10;59.40
81311;DHT22;70779;52.506;5.492;2023-07-22T01:02:31;19.10;59.50
81311;DHT22;70779;52.506;5.492;2023-07-22T01:04:58;19.10;59.60
81311;DHT22;70779;52.506;5.492;2023-07-22T01:07:24;19.00;59.70
81311;DHT22;70779;52.506;5.492;2023-07-22T01:09:55;18.90;59.90
81311;DHT22;70779;52.506;5.492;2023-07-22T01:12:22;18.90;60.00
81311;DHT22;70779;52.506;5.492;2023-07-22T01:14:48;18.80;60.20
81311;DHT22;70779;52.506;5.492;2023-07-22T01:17:14;18.70;60.30
81311;DHT22;70779;52.506;5.492;2023-07-22T01:19:40;18.60;60.50
81311;DHT22;70779;52.506;5.492;2023-07-22T01:22:07;18.50;60.80
81311;DHT22;70779;52.506;5.492;2023-07-22T01:24:33;18.50;60.90
81311;DHT22;70779;52.506;5.492;2023-07-22T01:27:00;18.40;61.00
81311;DHT22;70779;52.506;5.492;2023-07-22T01:29:26;18.30;61.30
81311;DHT22;70779;52.506;5.492;2023-07-22T01:31:54;18.20;61.40
81311;DHT22;70779;52.506;5.492;2023-07-22T01:34:21;18.10;61.60
81311;DHT22;70779;52.506;5.492;2023-07-22T01:36:48;18.10;61.80
81311;DHT22;70779;52.506;5.492;2023-07-22T01:39:15;18.00;62.00
81311;DHT22;70779;52.506;5.492;2023-07-22T01:41:42;18.00;62.20
81311;DHT22;70779;52.506;5.492;2023-07-22T01:44:08;17.90;62.50
81311;DHT22;70779;52.506;5.492;2023-07-22T01:46:35;17.80;62.60
81311;DHT22;70779;52.506;5.492;2023-07-22T01:49:03;17.80;62.70
81311;DHT22;70779;52.506;5.492;2023-07-22T01:51:29;17.80;62.70
81311;DHT22;70779;52.506;5.492;2023-07-22T01:53:56;17.80;62.90
81311;DHT22;70779;52.506;5.492;2023-07-22T01:56:23;17.80;62.90
81311;DHT22;70779;52.506;5.492;2023-07-22T01:58:49;17.80;63.00
81311;DHT22;70779;52.506;5.492;2023-07-22T02:01:15;17.70;63.10
81311;DHT22;70779;52.506;5.492;2023-07-22T02:03:42;17.70;63.20
81311;DHT22;70779;52.506;5.492;2023-07-22T02:06:09;17.60;63.30
81311;DHT22;70779;52.506;5.492;2023-07-22T02:08:35;17.60;63.30
81311;DHT22;70779;52.506;5.492;2023-07-22T02:11:03;17.60;63.50
81311;DHT22;70779;52.506;5.492;2023-07-22T02:13:30;17.60;63.50
81311;DHT22;70779;52.506;5.492;2023-07-22T02:15:57;17.60;63.50
81311;DHT22;70779;52.506;5.492;2023-07-22T02:18:23;17.60;63.50
81311;DHT22;70779;52.506;5.492;2023-07-22T02:20:49;17.60;63.60
81311;DHT22;70779;52.506;5.492;2023-07-22T02:23:15;17.50;63.70
81311;DHT22;70779;52.506;5.492;2023-07-22T02:25:41;17.50;63.80
81311;DHT22;70779;52.506;5.492;2023-07-22T02:28:08;17.50;63.90
81311;DHT22;70779;52.506;5.492;2023-07-22T02:30:35;17.50;64.00
81311;DHT22;70779;52.506;5.492;2023-07-22T02:33:02;17.50;64.00
81311;DHT22;70779;52.506;5.492;2023-07-22T02:35:29;17.60;64.00
81311;DHT22;70779;52.506;5.492;2023-07-22T02:37:55;17.60;64.00
81311;DHT22;70779;52.506;5.492;2023-07-22T02:40:21;17.60;64.00
81311;DHT22;70779;52.506;5.492;2023-07-22T02:42:47;17.60;64.00
81311;DHT22;70779;52.506;5.492;2023-07-22T02:45:13;17.60;64.00
81311;DHT22;70779;52.506;5.492;2023-07-22T02:47:39;17.60;63.90
81311;DHT22;70779;52.506;5.492;2023-07-22T02:50:06;17.60;63.90
81311;DHT22;70779;52.506;5.492;2023-07-22T02:52:33;17.60;63.90
81311;DHT22;70779;52.506;5.492;2023-07-22T02:55:13;17.60;64.00
81311;DHT22;70779;52.506;5.492;2023-07-22T02:57:40;17.60;63.90
81311;DHT22;70779;52.506;5.492;2023-07-22T03:00:07;17.60;63.90
81311;DHT22;70779;52.506;5.492;2023-07-22T03:02:38;17.60;64.00
81311;DHT22;70779;52.506;5.492;2023-07-22T03:05:05;17.50;64.10
81311;DHT22;70779;52.506;5.492;2023-07-22T03:07:38;17.60;64.10
81311;DHT22;70779;52.506;5.492;2023-07-22T03:10:05;17.60;64.10
81311;DHT22;70779;52.506;5.492;2023-07-22T03:12:32;17.60;64.10
81311;DHT22;70779;52.506;5.492;2023-07-22T03:14:58;17.60;64.20
81311;DHT22;70779;52.506;5.492;2023-07-22T03:17:25;17.60;64.20
81311;DHT22;70779;52.506;5.492;2023-07-22T03:19:51;17.60;64.20
81311;DHT22;70779;52.506;5.492;2023-07-22T03:22:17;17.60;64.20
81311;DHT22;70779;52.506;5.492;2023-07-22T03:24:45;17.70;64.20
81311;DHT22;70779;52.506;5.492;2023-07-22T03:27:12;17.70;64.30
81311;DHT22;70779;52.506;5.492;2023-07-22T03:29:41;17.60;64.40
81311;DHT22;70779;52.506;5.492;2023-07-22T03:32:07;17.70;64.40
81311;DHT22;70779;52.506;5.492;2023-07-22T03:34:34;17.70;64.40
81311;DHT22;70779;52.506;5.492;2023-07-22T03:37:00;17.70;64.50
81311;DHT22;70779;52.506;5.492;2023-07-22T03:39:27;17.80;64.50
81311;DHT22;70779;52.506;5.492;2023-07-22T03:41:53;17.80;64.50
81311;DHT22;70779;52.506;5.492;2023-07-22T03:44:19;17.80;64.50
81311;DHT22;70779;52.506;5.492;2023-07-22T03:46:45;17.80;64.50
81311;DHT22;70779;52.506;5.492;2023-07-22T03:49:11;17.80;64.40
81311;DHT22;70779;52.506;5.492;2023-07-22T03:51:37;17.80;64.50
81311;DHT22;70779;52.506;5.492;2023-07-22T03:54:03;17.80;64.60
81311;DHT22;70779;52.506;5.492;2023-07-22T03:56:29;17.80;64.60
81311;DHT22;70779;52.506;5.492;2023-07-22T03:58:55;17.70;64.60
81311;DHT22;70779;52.506;5.492;2023-07-22T04:01:21;17.60;64.70
81311;DHT22;70779;52.506;5.492;2023-07-22T04:03:47;17.60;64.70
81311;DHT22;70779;52.506;5.492;2023-07-22T04:06:14;17.50;64.80
81311;DHT22;70779;52.506;5.492;2023-07-22T04:08:40;17.50;64.80
81311;DHT22;70779;52.506;5.492;2023-07-22T04:11:06;17.50;64.90
81311;DHT22;70779;52.506;5.492;2023-07-22T04:13:32;17.50;65.00
81311;DHT22;70779;52.506;5.492;2023-07-22T04:15:58;17.40;65.00
81311;DHT22;70779;52.506;5.492;2023-07-22T04:18:24;17.40;65.10
81311;DHT22;70779;52.506;5.492;2023-07-22T04:20:56;17.40;65.20
81311;DHT22;70779;52.506;5.492;2023-07-22T04:23:23;17.50;65.20
81311;DHT22;70779;52.506;5.492;2023-07-22T04:25:49;17.50;65.20
81311;DHT22;70779;52.506;5.492;2023-07-22T04:28:15;17.50;65.10
81311;DHT22;70779;52.506;5.492;2023-07-22T04:30:41;17.50;65.00
81311;DHT22;70779;52.506;5.492;2023-07-22T04:33:07;17.60;64.80
81311;DHT22;70779;52.506;5.492;2023-07-22T04:35:41;17.60;64.80
81311;DHT22;70779;52.506;5.492;2023-07-22T04:38:07;17.60;64.80
81311;DHT22;70779;52.506;5.492;2023-07-22T04:40:33;17.60;64.80
81311;DHT22;70779;52.506;5.492;2023-07-22T04:42:59;17.80;64.80
81311;DHT22;70779;52.506;5.492;2023-07-22T04:45:25;17.80;64.60
81311;DHT22;70779;52.506;5.492;2023-07-22T04:47:51;17.80;64.50
81311;DHT22;70779;52.506;5.492;2023-07-22T04:50:18;17.80;64.40
81311;DHT22;70779;52.506;5.492;2023-07-22T04:52:47;17.80;64.30
81311;DHT22;70779;52.506;5.492;2023-07-22T04:55:14;17.90;64.30
81311;DHT22;70779;52.506;5.492;2023-07-22T04:57:42;17.90;64.30
81311;DHT22;70779;52.506;5.492;2023-07-22T05:00:12;18.00;64.30
81311;DHT22;70779;52.506;5.492;2023-07-22T05:02:40;18.00;64.30
81311;DHT22;70779;52.506;5.492;2023-07-22T05:05:07;18.10;64.10
81311;DHT22;70779;52.506;5.492;2023-07-22T05:07:33;18.20;64.00
81311;DHT22;70779;52.506;5.492;2023-07-22T05:09:59;18.30;63.90
81311;DHT22;70779;52.506;5.492;2023-07-22T05:12:25;18.30;63.70
81311;DHT22;70779;52.506;5.492;2023-07-22T05:14:51;18.30;63.60
81311;DHT22;70779;52.506;5.492;2023-07-22T05:17:17;18.40;63.50
81311;DHT22;70779;52.506;5.492;2023-07-22T05:19:43;18.40;63.50
81311;DHT22;70779;52.506;5.492;2023-07-22T05:22:10;18.40;63.50
81311;DHT22;70779;52.506;5.492;2023-07-22T05:24:36;18.40;63.50
81311;DHT22;70779;52.506;5.492;2023-07-22T05:27:02;18.40;63.50
81311;DHT22;70779;52.506;5.492;2023-07-22T05:29:28;18.40;63.50
81311;DHT22;70779;52.506;5.492;2023-07-22T05:31:54;18.40;63.50
81311;DHT22;70779;52.506;5.492;2023-07-22T05:34:21;18.40;63.60
81311;DHT22;70779;52.506;5.492;2023-07-22T05:36:47;18.40;63.60
81311;DHT22;70779;52.506;5.492;2023-07-22T05:39:13;18.50;63.60
81311;DHT22;70779;52.506;5.492;2023-07-22T05:41:39;18.50;63.40
81311;DHT22;70779;52.506;5.492;2023-07-22T05:44:05;18.50;63.40
81311;DHT22;70779;52.506;5.492;2023-07-22T05:46:31;18.50;63.40
81311;DHT22;70779;52.506;5.492;2023-07-22T05:48:57;18.60;63.40
81311;DHT22;70779;52.506;5.492;2023-07-22T05:51:23;18.60;63.40
81311;DHT22;70779;52.506;5.492;2023-07-22T05:53:50;18.60;63.50
81311;DHT22;70779;52.506;5.492;2023-07-22T05:56:16;18.70;63.50
81311;DHT22;70779;52.506;5.492;2023-07-22T05:58:45;18.70;63.50
81311;DHT22;70779;52.506;5.492;2023-07-22T06:01:11;18.80;63.30
81311;DHT22;70779;52.506;5.492;2023-07-22T06:03:38;18.80;63.20
81311;DHT22;70779;52.506;5.492;2023-07-22T06:06:04;18.90;63.20
81311;DHT22;70779;52.506;5.492;2023-07-22T06:08:30;18.90;63.20
81311;DHT22;70779;52.506;5.492;2023-07-22T06:10:57;18.90;63.00
81311;DHT22;70779;52.506;5.492;2023-07-22T06:13:23;19.00;63.00
81311;DHT22;70779;52.506;5.492;2023-07-22T06:15:49;19.00;63.10
81311;DHT22;70779;52.506;5.492;2023-07-22T06:18:18;19.00;63.20
81311;DHT22;70779;52.506;5.492;2023-07-22T06:20:47;19.10;63.10
81311;DHT22;70779;52.506;5.492;2023-07-22T06:23:14;19.30;62.80
81311;DHT22;70779;52.506;5.492;2023-07-22T06:25:40;19.50;62.50
81311;DHT22;70779;52.506;5.492;2023-07-22T06:28:06;19.50;62.30
81311;DHT22;70779;52.506;5.492;2023-07-22T06:30:33;19.70;62.30
81311;DHT22;70779;52.506;5.492;2023-07-22T06:32:59;19.70;62.20
81311;DHT22;70779;52.506;5.492;2023-07-22T06:35:25;19.90;62.00
81311;DHT22;70779;52.506;5.492;2023-07-22T06:37:51;19.90;61.90
81311;DHT22;70779;52.506;5.492;2023-07-22T06:40:18;19.90;61.80
81311;DHT22;70779;52.506;5.492;2023-07-22T06:42:44;19.90;61.80
81311;DHT22;70779;52.506;5.492;2023-07-22T06:45:13;19.90;61.90
81311;DHT22;70779;52.506;5.492;2023-07-22T06:47:39;19.80;61.90
81311;DHT22;70779;52.506;5.492;2023-07-22T06:50:05;19.80;62.10
81311;DHT22;70779;52.506;5.492;2023-07-22T06:52:32;19.80;62.20
81311;DHT22;70779;52.506;5.492;2023-07-22T06:54:59;19.90;62.20
81311;DHT22;70779;52.506;5.492;2023-07-22T06:57:25;20.10;62.10
81311;DHT22;70779;52.506;5.492;2023-07-22T06:59:55;20.30;62.00
81311;DHT22;70779;52.506;5.492;2023-07-22T07:02:21;20.50;61.60
81311;DHT22;70779;52.506;5.492;2023-07-22T07:04:47;20.80;61.10
81311;DHT22;70779;52.506;5.492;2023-07-22T07:07:14;21.00;60.80
81311;DHT22;70779;52.506;5.492;2023-07-22T07:09:40;21.10;60.60
81311;DHT22;70779;52.506;5.492;2023-07-22T07:12:07;21.30;60.30
81311;DHT22;70779;52.506;5.492;2023-07-22T07:14:34;21.50;59.90
81311;DHT22;70779;52.506;5.492;2023-07-22T07:17:01;21.60;59.60
81311;DHT22;70779;52.506;5.492;2023-07-22T07:19:31;21.70;59.50
81311;DHT22;70779;52.506;5.492;2023-07-22T07:21:57;21.80;59.20
81311;DHT22;70779;52.506;5.492;2023-07-22T07:24:23;21.90;59.20
81311;DHT22;70779;52.506;5.492;2023-07-22T07:26:50;21.90;59.10
81311;DHT22;70779;52.506;5.492;2023-07-22T07:29:16;22.00;59.00
81311;DHT22;70779;52.506;5.492;2023-07-22T07:31:42;22.10;58.80
81311;DHT22;70779;52.506;5.492;2023-07-22T07:34:08;22.20;58.60
81311;DHT22;70779;52.506;5.492;2023-07-22T07:36:38;22.20;58.70
81311;DHT22;70779;52.506;5.492;2023-07-22T07:39:04;22.40;58.50
81311;DHT22;70779;52.506;5.492;2023-07-22T07:41:30;22.50;58.20
81311;DHT22;70779;52.506;5.492;2023-07-22T07:43:56;22.60;57.90
81311;DHT22;70779;52.506;5.492;2023-07-22T07:46:27;22.60;57.70
81311;DHT22;70779;52.506;5.492;2023-07-22T07:48:54;22.50;57.80
81311;DHT22;70779;52.506;5.492;2023-07-22T07:51:22;22.50;57.90
81311;DHT22;70779;52.506;5.492;2023-07-22T07:53:49;22.30;58.30
81311;DHT22;70779;52.506;5.492;2023-07-22T07:56:16;22.20;58.70
81311;DHT22;70779;52.506;5.492;2023-07-22T07:58:43;22.10;59.00
81311;DHT22;70779;52.506;5.492;2023-07-22T08:01:09;22.00;59.30
81311;DHT22;70779;52.506;5.492;2023-07-22T08:03:36;21.90;59.70
81311;DHT22;70779;52.506;5.492;2023-07-22T08:06:03;21.90;60.10
81311;DHT22;70779;52.506;5.492;2023-07-22T08:08:29;21.90;60.70
81311;DHT22;70779;52.506;5.492;2023-07-22T08:13:25;21.90;61.50
81311;DHT22;70779;52.506;5.492;2023-07-22T08:15:51;21.90;61.80
81311;DHT22;70779;52.506;5.492;2023-07-22T08:18:18;21.90;62.10
81311;DHT22;70779;52.506;5.492;2023-07-22T08:20:44;21.90;62.30
81311;DHT22;70779;52.506;5.492;2023-07-22T08:23:13;22.20;62.20
81311;DHT22;70779;52.506;5.492;2023-07-22T08:25:39;22.50;61.80
81311;DHT22;70779;52.506;5.492;2023-07-22T08:28:05;22.80;61.30
81311;DHT22;70779;52.506;5.492;2023-07-22T08:30:31;23.00;61.00
81311;DHT22;70779;52.506;5.492;2023-07-22T08:32:57;23.10;60.70
81311;DHT22;70779;52.506;5.492;2023-07-22T08:35:24;23.20;60.10
81311;DHT22;70779;52.506;5.492;2023-07-22T08:37:50;23.20;60.10
81311;DHT22;70779;52.506;5.492;2023-07-22T08:40:16;23.20;59.90
81311;DHT22;70779;52.506;5.492;2023-07-22T08:42:44;23.20;60.10
81311;DHT22;70779;52.506;5.492;2023-07-22T08:45:11;23.20;60.10
81311;DHT22;70779;52.506;5.492;2023-07-22T08:47:47;23.20;60.20
81311;DHT22;70779;52.506;5.492;2023-07-22T08:50:20;23.20;59.70
81311;DHT22;70779;52.506;5.492;2023-07-22T08:52:47;23.20;59.90
81311;DHT22;70779;52.506;5.492;2023-07-22T08:55:15;23.30;59.80
81311;DHT22;70779;52.506;5.492;2023-07-22T08:57:41;23.40;59.40
81311;DHT22;70779;52.506;5.492;2023-07-22T09:00:08;23.50;59.20
81311;DHT22;70779;52.506;5.492;2023-07-22T09:02:35;23.60;58.80
81311;DHT22;70779;52.506;5.492;2023-07-22T09:05:02;23.60;58.60
81311;DHT22;70779;52.506;5.492;2023-07-22T09:07:29;23.60;58.70
81311;DHT22;70779;52.506;5.492;2023-07-22T09:09:57;23.50;58.70
81311;DHT22;70779;52.506;5.492;2023-07-22T09:12:24;23.40;58.80
81311;DHT22;70779;52.506;5.492;2023-07-22T09:14:52;23.30;58.70
81311;DHT22;70779;52.506;5.492;2023-07-22T09:17:18;23.50;58.80
81311;DHT22;70779;52.506;5.492;2023-07-22T09:19:45;23.70;57.80
81311;DHT22;70779;52.506;5.492;2023-07-22T09:22:11;24.00;57.60
81311;DHT22;70779;52.506;5.492;2023-07-22T09:24:37;24.30;56.70
81311;DHT22;70779;52.506;5.492;2023-07-22T09:27:03;24.50;55.90
81311;DHT22;70779;52.506;5.492;2023-07-22T09:29:38;24.60;55.80
81311;DHT22;70779;52.506;5.492;2023-07-22T09:32:05;24.60;54.90
81311;DHT22;70779;52.506;5.492;2023-07-22T09:34:32;24.50;54.90
81311;DHT22;70779;52.506;5.492;2023-07-22T09:37:01;24.40;55.10
81311;DHT22;70779;52.506;5.492;2023-07-22T09:39:31;24.20;54.80
81311;DHT22;70779;52.506;5.492;2023-07-22T09:41:58;24.00;54.90
81311;DHT22;70779;52.506;5.492;2023-07-22T09:44:30;23.80;54.90
81311;DHT22;70779;52.506;5.492;2023-07-22T09:46:57;23.60;55.40
81311;DHT22;70779;52.506;5.492;2023-07-22T09:49:23;23.30;56.10
81311;DHT22;70779;52.506;5.492;2023-07-22T09:51:51;23.10;57.40
81311;DHT22;70779;52.506;5.492;2023-07-22T09:54:19;22.70;58.60
81311;DHT22;70779;52.506;5.492;2023-07-22T09:56:47;22.30;59.40
81311;DHT22;70779;52.506;5.492;2023-07-22T09:59:14;22.10;60.00
81311;DHT22;70779;52.506;5.492;2023-07-22T10:01:41;21.90;60.30
81311;DHT22;70779;52.506;5.492;2023-07-22T10:04:10;21.70;60.30
81311;DHT22;70779;52.506;5.492;2023-07-22T10:06:39;21.50;60.70
81311;DHT22;70779;52.506;5.492;2023-07-22T10:09:05;21.40;61.20
81311;DHT22;70779;52.506;5.492;2023-07-22T10:11:35;21.30;61.60
81311;DHT22;70779;52.506;5.492;2023-07-22T10:14:02;21.30;61.90
81311;DHT22;70779;52.506;5.492;2023-07-22T10:16:29;21.40;62.20
81311;DHT22;70779;52.506;5.492;2023-07-22T10:18:55;21.50;62.10
81311;DHT22;70779;52.506;5.492;2023-07-22T10:21:23;21.70;61.90
81311;DHT22;70779;52.506;5.492;2023-07-22T10:23:50;21.90;61.70
81311;DHT22;70779;52.506;5.492;2023-07-22T10:26:18;22.10;61.30
81311;DHT22;70779;52.506;5.492;2023-07-22T10:28:45;22.30;60.90
81311;DHT22;70779;52.506;5.492;2023-07-22T10:31:13;22.30;60.70
81311;DHT22;70779;52.506;5.492;2023-07-22T10:33:40;22.50;60.20
81311;DHT22;70779;52.506;5.492;2023-07-22T10:36:16;22.50;60.00
81311;DHT22;70779;52.506;5.492;2023-07-22T10:38:42;22.50;59.70
81311;DHT22;70779;52.506;5.492;2023-07-22T10:41:14;22.50;59.40
81311;DHT22;70779;52.506;5.492;2023-07-22T10:43:56;22.50;59.60
81311;DHT22;70779;52.506;5.492;2023-07-22T10:46:37;22.50;59.70
81311;DHT22;70779;52.506;5.492;2023-07-22T10:49:16;22.50;59.30
81311;DHT22;70779;52.506;5.492;2023-07-22T10:51:50;22.60;58.80
81311;DHT22;70779;52.506;5.492;2023-07-22T10:54:31;22.60;59.00
81311;DHT22;70779;52.506;5.492;2023-07-22T10:57:28;22.70;58.50
81311;DHT22;70779;52.506;5.492;2023-07-22T10:59:55;22.80;58.20
81311;DHT22;70779;52.506;5.492;2023-07-22T11:02:26;22.80;58.00
81311;DHT22;70779;52.506;5.492;2023-07-22T11:04:52;22.90;57.60
81311;DHT22;70779;52.506;5.492;2023-07-22T11:07:42;22.90;57.30
81311;DHT22;70779;52.506;5.492;2023-07-22T11:10:18;22.80;57.60
81311;DHT22;70779;52.506;5.492;2023-07-22T11:12:45;22.70;57.70
81311;DHT22;70779;52.506;5.492;2023-07-22T11:15:15;22.70;57.80
81311;DHT22;70779;52.506;5.492;2023-07-22T11:17:41;22.60;57.90
81311;DHT22;70779;52.506;5.492;2023-07-22T11:20:07;22.60;58.20
81311;DHT22;70779;52.506;5.492;2023-07-22T11:22:34;22.50;58.50
81311;DHT22;70779;52.506;5.492;2023-07-22T11:25:00;22.40;59.00
81311;DHT22;70779;52.506;5.492;2023-07-22T11:27:26;22.30;59.70
81311;DHT22;70779;52.506;5.492;2023-07-22T11:29:52;22.00;60.70
81311;DHT22;70779;52.506;5.492;2023-07-22T11:32:19;21.70;61.60
81311;DHT22;70779;52.506;5.492;2023-07-22T11:34:48;21.40;62.20
81311;DHT22;70779;52.506;5.492;2023-07-22T11:37:14;21.10;62.90
81311;DHT22;70779;52.506;5.492;2023-07-22T11:39:41;21.10;63.30
81311;DHT22;70779;52.506;5.492;2023-07-22T11:42:08;20.90;63.50
81311;DHT22;70779;52.506;5.492;2023-07-22T11:44:34;20.90;63.80
81311;DHT22;70779;52.506;5.492;2023-07-22T11:49:31;20.90;63.60
81311;DHT22;70779;52.506;5.492;2023-07-22T11:52:11;21.00;63.40
81311;DHT22;70779;52.506;5.492;2023-07-22T11:54:42;21.10;63.20
81311;DHT22;70779;52.506;5.492;2023-07-22T11:57:18;21.30;62.70
81311;DHT22;70779;52.506;5.492;2023-07-22T11:59:46;21.50;62.50
81311;DHT22;70779;52.506;5.492;2023-07-22T12:02:14;21.80;62.10
81311;DHT22;70779;52.506;5.492;2023-07-22T12:04:40;22.00;61.60
81311;DHT22;70779;52.506;5.492;2023-07-22T12:07:06;22.10;61.10
81311;DHT22;70779;52.506;5.492;2023-07-22T12:09:32;22.30;60.70
81311;DHT22;70779;52.506;5.492;2023-07-22T12:11:59;22.50;60.60
81311;DHT22;70779;52.506;5.492;2023-07-22T12:14:35;22.60;60.50
81311;DHT22;70779;52.506;5.492;2023-07-22T12:17:02;22.90;60.30
81311;DHT22;70779;52.506;5.492;2023-07-22T12:19:29;23.20;60.00
81311;DHT22;70779;52.506;5.492;2023-07-22T12:21:56;23.40;59.10
81311;DHT22;70779;52.506;5.492;2023-07-22T12:24:22;23.60;58.60
81311;DHT22;70779;52.506;5.492;2023-07-22T12:26:48;24.00;58.20
81311;DHT22;70779;52.506;5.492;2023-07-22T12:29:14;24.20;57.80
81311;DHT22;70779;52.506;5.492;2023-07-22T12:31:40;24.40;57.40
81311;DHT22;70779;52.506;5.492;2023-07-22T12:34:06;24.50;57.00
81311;DHT22;70779;52.506;5.492;2023-07-22T12:36:32;24.50;56.30
81311;DHT22;70779;52.506;5.492;2023-07-22T12:38:59;24.40;56.60
81311;DHT22;70779;52.506;5.492;2023-07-22T12:41:25;24.40;57.00
81311;DHT22;70779;52.506;5.492;2023-07-22T12:43:51;24.40;56.60
81311;DHT22;70779;52.506;5.492;2023-07-22T12:46:17;24.30;56.30
81311;DHT22;70779;52.506;5.492;2023-07-22T12:48:43;24.20;56.00
81311;DHT22;70779;52.506;5.492;2023-07-22T12:51:10;24.20;56.10
81311;DHT22;70779;52.506;5.492;2023-07-22T12:53:36;24.30;55.80
81311;DHT22;70779;52.506;5.492;2023-07-22T12:56:02;24.30;55.00
81311;DHT22;70779;52.506;5.492;2023-07-22T12:58:29;24.20;54.70
81311;DHT22;70779;52.506;5.492;2023-07-22T13:00:55;24.20;54.00
81311;DHT22;70779;52.506;5.492;2023-07-22T13:03:21;24.20;54.00
81311;DHT22;70779;52.506;5.492;2023-07-22T13:05:47;24.20;53.50
81311;DHT22;70779;52.506;5.492;2023-07-22T13:08:13;24.30;53.00
81311;DHT22;70779;52.506;5.492;2023-07-22T13:10:39;24.40;52.60
81311;DHT22;70779;52.506;5.492;2023-07-22T13:13:09;24.40;52.30
81311;DHT22;70779;52.506;5.492;2023-07-22T13:15:36;24.60;51.50
81311;DHT22;70779;52.506;5.492;2023-07-22T13:18:02;24.60;51.60
81311;DHT22;70779;52.506;5.492;2023-07-22T13:20:29;24.70;51.10
81311;DHT22;70779;52.506;5.492;2023-07-22T13:22:55;24.70;51.00
81311;DHT22;70779;52.506;5.492;2023-07-22T13:25:21;24.70;50.40
81311;DHT22;70779;52.506;5.492;2023-07-22T13:27:48;24.60;50.00
81311;DHT22;70779;52.506;5.492;2023-07-22T13:30:14;24.50;50.10
81311;DHT22;70779;52.506;5.492;2023-07-22T13:32:40;24.40;50.50
81311;DHT22;70779;52.506;5.492;2023-07-22T13:35:06;24.30;50.60
81311;DHT22;70779;52.506;5.492;2023-07-22T13:37:34;24.20;50.70
81311;DHT22;70779;52.506;5.492;2023-07-22T13:40:00;24.10;50.90
81311;DHT22;70779;52.506;5.492;2023-07-22T13:42:26;24.00;51.00
81311;DHT22;70779;52.506;5.492;2023-07-22T13:44:52;23.90;51.80
81311;DHT22;70779;52.506;5.492;2023-07-22T13:47:19;23.80;52.00
81311;DHT22;70779;52.506;5.492;2023-07-22T13:49:45;23.60;51.40
81311;DHT22;70779;52.506;5.492;2023-07-22T13:52:14;23.50;51.90
81311;DHT22;70779;52.506;5.492;2023-07-22T13:54:40;23.40;51.90
81311;DHT22;70779;52.506;5.492;2023-07-22T13:57:07;23.40;51.80
81311;DHT22;70779;52.506;5.492;2023-07-22T13:59:36;23.30;51.70
81311;DHT22;70779;52.506;5.492;2023-07-22T14:02:02;23.30;51.70
81311;DHT22;70779;52.506;5.492;2023-07-22T14:04:29;23.20;51.60
81311;DHT22;70779;52.506;5.492;2023-07-22T14:06:55;23.10;52.00
81311;DHT22;70779;52.506;5.492;2023-07-22T14:09:22;23.00;52.50
81311;DHT22;70779;52.506;5.492;2023-07-22T14:11:48;22.90;52.60
81311;DHT22;70779;52.506;5.492;2023-07-22T14:14:14;22.80;52.70
81311;DHT22;70779;52.506;5.492;2023-07-22T14:16:40;22.80;52.70
81311;DHT22;70779;52.506;5.492;2023-07-22T14:19:07;22.70;52.80
81311;DHT22;70779;52.506;5.492;2023-07-22T14:21:33;22.70;52.70
81311;DHT22;70779;52.506;5.492;2023-07-22T14:23:59;22.70;52.30
81311;DHT22;70779;52.506;5.492;2023-07-22T14:26:25;22.70;52.20
81311;DHT22;70779;52.506;5.492;2023-07-22T14:28:51;22.80;52.30
81311;DHT22;70779;52.506;5.492;2023-07-22T14:31:17;22.80;52.10
81311;DHT22;70779;52.506;5.492;2023-07-22T14:33:43;22.90;52.00
81311;DHT22;70779;52.506;5.492;2023-07-22T14:36:09;22.90;52.00
81311;DHT22;70779;52.506;5.492;2023-07-22T14:38:35;23.00;52.00
81311;DHT22;70779;52.506;5.492;2023-07-22T14:41:02;23.10;51.80
81311;DHT22;70779;52.506;5.492;2023-07-22T14:43:28;23.10;52.00
81311;DHT22;70779;52.506;5.492;2023-07-22T14:45:55;23.20;52.00
81311;DHT22;70779;52.506;5.492;2023-07-22T14:48:21;23.30;52.10
81311;DHT22;70779;52.506;5.492;2023-07-22T14:50:47;23.30;52.10
81311;DHT22;70779;52.506;5.492;2023-07-22T14:53:13;23.40;52.10
81311;DHT22;70779;52.506;5.492;2023-07-22T14:55:39;23.50;52.30
81311;DHT22;70779;52.506;5.492;2023-07-22T14:58:05;23.60;52.20
81311;DHT22;70779;52.506;5.492;2023-07-22T15:00:31;23.60;52.10
81311;DHT22;70779;52.506;5.492;2023-07-22T15:02:57;23.80;52.10
81311;DHT22;70779;52.506;5.492;2023-07-22T15:05:23;23.90;52.10
81311;DHT22;70779;52.506;5.492;2023-07-22T15:07:52;23.90;51.80
81311;DHT22;70779;52.506;5.492;2023-07-22T15:10:19;24.00;51.80
81311;DHT22;70779;52.506;5.492;2023-07-22T15:12:45;24.00;51.80
81311;DHT22;70779;52.506;5.492;2023-07-22T15:15:12;24.00;51.70
81311;DHT22;70779;52.506;5.492;2023-07-22T15:17:39;23.90;51.80
81311;DHT22;70779;52.506;5.492;2023-07-22T15:20:05;23.90;51.90
81311;DHT22;70779;52.506;5.492;2023-07-22T15:22:32;23.90;52.00
81311;DHT22;70779;52.506;5.492;2023-07-22T15:24:58;23.90;52.10
81311;DHT22;70779;52.506;5.492;2023-07-22T15:27:24;23.90;52.20
81311;DHT22;70779;52.506;5.492;2023-07-22T15:29:50;23.90;52.00
81311;DHT22;70779;52.506;5.492;2023-07-22T15:32:16;23.80;51.90
81311;DHT22;70779;52.506;5.492;2023-07-22T15:34:42;23.70;52.20